Terminal Aerodrome Forecast
Issued by NWS

Home | Current Version | Previous Version | Text Only | Print | Product List | Glossary Off
Versions: 1 2 3 4 5 6 7 8 9 10 11 12 13 14 15 16 17 18

000
FTUS43 KTOP 290146 AAA
TAFMHK
TAF AMD
KMHK 290146Z 2902/2924 35010KT P6SM VCTS SCT060CB
      TEMPO 2904/2908 VRB10G25KT 4SM -TSRA BR BKN040CB
     FM291000 03008KT P6SM SCT040 BKN150=

USA.gov is the U.S. government's official web portal to all federal, state and local government web resources and services.